< < Back
Terminal Aerodrome Forecast


Current Version              Previous Versions:   1  2  3  4  5  6  7  8  9  

Terminal Aerodrome Forecast

619
FTUS44 KBMX 312300
TAFMGM
TAF
KMGM 312320Z 0100/0124 36004KT P6SM BKN100
      TEMPO 0108/0112 4SM BR
     FM011500 06004KT P6SM BKN150=



Latest METAR

005
SAUS80 KWBC 010300 RRD
MTRMGM
METAR KMGM 010253Z 36004KT 10SM CLR 26/19 A3002 RMK AO2 SLP162 T02610189
53009


USA.gov is the U.S. government's official web portal to all federal, state and local government web resources and services.